Time;durP1;ratioP1;P1;durP2;ratioP2;P2;SDS_P1;SDS_P2;PMS_P1;PMS_P2;Temp;Humidity;BMP_temperature;BMP_pressure;BME280_temperature;BME280_humidity;BME280_pressure;Samples;Min_cycle;Max_cycle;Signal;HPM_P1;HPM_P2
2021/01/05 00:01:11;;;;;;;5.93;4.30;;;;;;;2.87;76.93;98869.38;5032994;28;20221;-69
2021/01/05 00:03:37;;;;;;;8.32;4.45;;;;;;;2.91;77.00;98884.28;5033544;28;20190;-68
2021/01/05 00:06:04;;;;;;;6.93;4.25;;;;;;;2.88;77.18;98874.63;5033338;28;20683;-68
2021/01/05 00:08:30;;;;;;;9.10;5.03;;;;;;;2.89;77.33;98876.38;5033404;28;20265;-68
2021/01/05 00:10:57;;;;;;;10.60;6.05;;;;;;;2.85;77.52;98876.53;5033331;28;20300;-68
2021/01/05 00:13:24;;;;;;;7.07;4.32;;;;;;;2.79;78.07;98882.97;5032858;28;20288;-68
2021/01/05 00:15:50;;;;;;;5.43;3.50;;;;;;;2.87;78.49;98877.34;5033208;28;20269;-68
2021/01/05 00:18:16;;;;;;;8.02;4.68;;;;;;;2.86;78.61;98875.63;5032761;28;20198;-67
2021/01/05 00:20:42;;;;;;;7.13;4.80;;;;;;;2.84;78.97;98874.81;5032980;28;20239;-69
2021/01/05 00:23:09;;;;;;;9.13;4.97;;;;;;;2.80;79.42;98873.19;5032728;28;20280;-69
2021/01/05 00:25:35;;;;;;;5.85;4.05;;;;;;;2.74;79.95;98873.41;5032537;28;20225;-68
2021/01/05 00:28:02;;;;;;;8.32;5.00;;;;;;;2.75;80.34;98872.50;5032655;28;20186;-67
2021/01/05 00:30:28;;;;;;;6.00;4.53;;;;;;;2.72;80.42;98871.69;5032561;28;20206;-70
2021/01/05 00:32:55;;;;;;;7.68;4.45;;;;;;;2.79;80.74;98871.47;5032854;28;20292;-68
2021/01/05 00:35:24;;;;;;;7.03;5.40;;;;;;;2.75;81.30;98877.81;5032431;28;20308;-67
2021/01/05 00:37:51;;;;;;;7.55;4.78;;;;;;;2.76;81.60;98887.50;5032531;28;20186;-68
2021/01/05 00:40:20;;;;;;;7.20;5.38;;;;;;;2.76;82.25;98874.22;5032757;28;20205;-67
2021/01/05 00:42:46;;;;;;;6.75;4.80;;;;;;;2.89;81.64;98876.38;5032625;28;20700;-68
2021/01/05 00:45:18;;;;;;;9.10;5.43;;;;;;;2.82;82.10;98874.84;5032669;28;20216;-68
2021/01/05 00:47:45;;;;;;;7.10;5.55;;;;;;;2.79;82.21;98869.66;5032830;28;20704;-68
2021/01/05 00:50:12;;;;;;;10.90;6.57;;;;;;;2.83;82.24;98879.28;5032424;28;20226;-69
2021/01/05 00:52:38;;;;;;;8.07;4.75;;;;;;;2.89;82.33;98880.81;5032119;28;20255;-68
2021/01/05 00:55:05;;;;;;;9.57;5.03;;;;;;;2.75;83.05;98881.34;5032193;28;20188;-69
2021/01/05 00:57:31;;;;;;;8.93;5.32;;;;;;;2.87;82.73;98869.38;5032097;28;20251;-68
2021/01/05 00:59:58;;;;;;;9.43;5.57;;;;;;;2.85;82.79;98881.84;5032486;28;20204;-69
2021/01/05 01:02:25;;;;;;;10.55;4.90;;;;;;;2.89;82.93;98873.72;5032458;28;20240;-69
2021/01/05 01:04:51;;;;;;;12.70;6.18;;;;;;;2.98;82.51;98882.25;5032362;28;20623;-67
2021/01/05 01:07:17;;;;;;;7.28;4.75;;;;;;;2.99;82.17;98882.19;5031942;28;20198;-67
2021/01/05 01:09:43;;;;;;;11.07;5.63;;;;;;;3.02;82.39;98887.38;5032502;28;20593;-69
2021/01/05 01:12:16;;;;;;;10.57;5.45;;;;;;;3.13;81.41;98884.31;5032298;28;20289;-68
2021/01/05 01:14:44;;;;;;;10.30;4.75;;;;;;;3.00;82.11;98889.25;5031911;28;20960;-67
2021/01/05 01:17:11;;;;;;;7.15;4.13;;;;;;;2.95;82.74;98883.25;5032547;28;20620;-69
2021/01/05 01:19:38;;;;;;;8.32;5.60;;;;;;;2.89;82.65;98879.03;5032170;28;20285;-67
2021/01/05 01:22:05;;;;;;;8.95;5.88;;;;;;;2.91;83.06;98882.47;5031950;28;20318;-69
2021/01/05 01:24:31;;;;;;;8.00;5.30;;;;;;;2.97;82.98;98888.50;5032325;28;20925;-69
2021/01/05 01:26:57;;;;;;;7.40;5.18;;;;;;;2.93;83.33;98880.63;5032342;28;20190;-68
2021/01/05 01:29:25;;;;;;;8.60;4.53;;;;;;;2.90;83.25;98882.56;5032181;28;20300;-68
2021/01/05 01:31:52;;;;;;;9.10;5.68;;;;;;;2.85;83.45;98884.50;5032302;28;20190;-68
2021/01/05 01:34:21;;;;;;;8.77;5.28;;;;;;;2.84;83.83;98874.81;5032242;28;20263;-69
2021/01/05 01:36:58;;;;;;;7.32;4.88;;;;;;;2.87;83.82;98882.66;5032089;28;20186;-69
2021/01/05 01:39:25;;;;;;;9.38;6.35;;;;;;;2.81;83.91;98885.56;5031615;28;20272;-68
2021/01/05 01:41:51;;;;;;;11.13;4.95;;;;;;;2.70;84.38;98888.63;5031538;28;20269;-69
2021/01/05 01:44:23;;;;;;;12.00;5.70;;;;;;;2.77;84.41;98886.59;5031656;28;20196;-66
2021/01/05 01:46:51;;;;;;;8.77;5.60;;;;;;;2.82;84.65;98892.59;5031629;28;20205;-68
2021/01/05 01:49:18;;;;;;;13.48;5.82;;;;;;;3.04;83.76;98882.88;5031993;28;20213;-68
2021/01/05 01:51:44;;;;;;;9.45;5.22;;;;;;;3.14;83.14;98886.03;5031613;28;20190;-68
2021/01/05 01:54:46;;;;;;;8.55;4.72;;;;;;;2.94;83.19;98884.19;5031439;28;20237;-67
2021/01/05 01:57:32;;;;;;;8.30;5.35;;;;;;;2.93;83.89;98891.25;5031614;28;20269;-69
2021/01/05 02:00:21;;;;;;;6.85;4.60;;;;;;;2.96;83.68;98892.09;5031727;28;20567;-69
2021/01/05 02:03:16;;;;;;;12.15;6.30;;;;;;;2.84;84.00;98896.94;5031333;28;20192;-68
2021/01/05 02:05:51;;;;;;;8.35;4.10;;;;;;;2.88;84.11;98898.56;5031394;28;20707;-68
2021/01/05 02:08:30;;;;;;;7.35;4.38;;;;;;;3.00;83.37;98897.22;5031750;28;20209;-69
2021/01/05 02:11:22;;;;;;;7.57;4.45;;;;;;;3.01;83.19;98893.66;5031244;28;20273;-68
2021/01/05 02:14:10;;;;;;;9.68;4.88;;;;;;;2.87;83.48;98895.94;5031323;28;20206;-69
2021/01/05 02:16:50;;;;;;;9.68;4.88;;;;;;;2.86;83.93;98894.22;5031280;28;20213;-68
2021/01/05 02:19:26;;;;;;;11.95;5.30;;;;;;;2.91;83.47;98903.75;5031652;28;20542;-67
2021/01/05 02:22:02;;;;;;;6.90;4.15;;;;;;;2.92;83.55;98889.53;5031183;28;20653;-70
2021/01/05 02:24:41;;;;;;;6.90;4.30;;;;;;;2.97;83.61;98892.03;5031794;28;20296;-67
2021/01/05 02:27:10;;;;;;;9.30;5.95;;;;;;;3.05;83.56;98895.28;5034974;28;20263;-68
2021/01/05 02:29:41;;;;;;;9.30;5.50;;;;;;;3.08;82.85;98897.81;5035201;28;20244;-68
2021/01/05 02:32:22;;;;;;;7.00;4.80;;;;;;;3.04;82.72;98890.88;5034915;28;20189;-68
2021/01/05 02:35:24;;;;;;;9.80;6.57;;;;;;;3.13;82.62;98893.16;5035188;28;20282;-68
2021/01/05 02:38:07;;;;;;;5.90;3.42;;;;;;;3.22;82.22;98891.94;5018497;28;20201;-69
2021/01/05 02:40:47;;;;;;;10.90;5.07;;;;;;;3.36;81.34;98895.84;5035019;28;20581;-67
2021/01/05 02:43:27;;;;;;;9.55;4.80;;;;;;;3.10;82.34;98893.28;5034559;28;20274;-68
2021/01/05 02:46:09;;;;;;;6.65;4.05;;;;;;;3.07;82.91;98890.72;5034815;28;20216;-68
2021/01/05 02:48:51;;;;;;;8.82;4.70;;;;;;;3.00;83.38;98891.03;5034452;28;20235;-68
2021/01/05 02:51:52;;;;;;;10.38;5.78;;;;;;;3.14;82.88;98883.38;5034886;28;20556;-69
2021/01/05 02:54:51;;;;;;;11.40;5.50;;;;;;;3.18;82.31;98889.47;5034744;28;20231;-67
2021/01/05 02:57:35;;;;;;;7.50;4.72;;;;;;;3.02;83.34;98895.38;5034357;28;20206;-68
2021/01/05 03:00:27;;;;;;;8.98;5.45;;;;;;;3.05;83.25;98892.63;5034381;28;20297;-68
2021/01/05 03:03:37;;;;;;;7.10;4.90;;;;;;;2.93;83.67;98893.06;5034739;28;20237;-69
2021/01/05 03:06:35;;;;;;;8.98;4.95;;;;;;;2.88;84.23;98895.91;5034027;28;20226;-67
2021/01/05 03:09:27;;;;;;;14.10;6.10;;;;;;;2.99;83.64;98884.00;5034525;28;20196;-68
2021/01/05 03:12:26;;;;;;;8.55;5.90;;;;;;;3.08;83.02;98881.84;5034087;28;20278;-68
2021/01/05 03:15:05;;;;;;;8.70;4.80;;;;;;;2.96;83.40;98878.78;5030662;28;20194;-68
2021/01/05 03:17:36;;;;;;;6.25;4.25;;;;;;;2.98;83.33;98883.09;5034446;28;20190;-68
2021/01/05 03:20:11;;;;;;;7.93;4.43;;;;;;;2.90;83.34;98883.41;5033853;28;20200;-68
2021/01/05 03:22:47;;;;;;;7.55;4.28;;;;;;;2.88;84.14;98884.41;5034016;28;20236;-68
2021/01/05 03:25:15;;;;;;;7.57;4.70;;;;;;;2.93;84.05;98885.09;5033804;28;20202;-68
2021/01/05 03:27:41;;;;;;;8.63;4.80;;;;;;;3.03;83.90;98882.94;5033856;28;20190;-68
2021/01/05 03:30:19;;;;;;;6.57;5.28;;;;;;;2.98;83.60;98884.91;5034130;28;20247;-69
2021/01/05 03:32:46;;;;;;;10.00;4.63;;;;;;;2.96;83.51;98884.97;5033620;28;20186;-69
2021/01/05 03:35:13;;;;;;;8.32;4.70;;;;;;;3.16;83.18;98883.34;5034017;28;20274;-67
2021/01/05 03:37:39;;;;;;;10.23;4.88;;;;;;;3.21;83.05;98887.56;5033386;28;20670;-67
2021/01/05 03:40:09;;;;;;;8.02;5.75;;;;;;;3.27;82.58;98891.75;5033554;28;20202;-67
2021/01/05 03:42:35;;;;;;;10.55;5.35;;;;;;;3.13;82.97;98894.97;5033543;28;20190;-68
2021/01/05 03:45:02;;;;;;;10.82;5.43;;;;;;;3.20;83.01;98898.25;5033820;28;20304;-68
2021/01/05 03:47:28;;;;;;;6.80;4.55;;;;;;;3.04;83.70;98895.31;5033651;28;20269;-70
2021/01/05 03:49:55;;;;;;;8.55;4.88;;;;;;;3.04;84.09;98895.31;5033732;28;20224;-68
2021/01/05 03:52:24;;;;;;;9.32;5.20;;;;;;;3.16;83.88;98901.94;5033774;28;20190;-68
2021/01/05 03:54:50;;;;;;;6.38;4.30;;;;;;;3.02;84.09;98899.81;5033673;28;20186;-69
2021/01/05 03:57:16;;;;;;;13.82;5.15;;;;;;;2.91;84.64;98902.91;5033473;28;20259;-68
2021/01/05 03:59:43;;;;;;;11.60;5.20;;;;;;;2.93;84.31;98903.69;5033512;28;20205;-68
2021/01/05 04:02:09;;;;;;;13.80;5.72;;;;;;;2.93;84.23;98904.56;5033500;28;20563;-68
2021/01/05 04:04:35;;;;;;;9.82;5.55;;;;;;;2.93;84.21;98895.72;5032919;28;20277;-67
2021/01/05 04:07:02;;;;;;;10.98;6.22;;;;;;;2.86;84.92;98900.41;5033462;28;20190;-68
2021/01/05 04:09:29;;;;;;;7.30;6.15;;;;;;;2.89;84.92;98908.28;5032962;28;20202;-69
2021/01/05 04:11:55;;;;;;;8.35;4.70;;;;;;;3.05;84.47;98897.94;5032853;28;20277;-70
2021/01/05 04:14:21;;;;;;;13.05;6.13;;;;;;;3.02;84.24;98899.81;5032870;28;20202;-68
2021/01/05 04:16:47;;;;;;;8.95;4.88;;;;;;;2.97;84.56;98896.50;5032894;28;20213;-67
2021/01/05 04:19:14;;;;;;;7.45;5.10;;;;;;;3.10;84.31;98903.06;5033153;28;20213;-67
2021/01/05 04:21:41;;;;;;;12.20;6.38;;;;;;;3.02;83.95;98910.47;5032902;28;20312;-67
2021/01/05 04:24:08;;;;;;;9.43;5.60;;;;;;;3.04;84.15;98897.97;5032936;28;20723;-69
2021/01/05 04:26:34;;;;;;;8.68;6.57;;;;;;;3.06;83.47;98904.97;5032652;28;20297;-68
2021/01/05 04:29:01;;;;;;;9.63;6.82;;;;;;;3.13;83.89;98909.13;5032713;28;20293;-68
2021/01/05 04:31:27;;;;;;;10.18;5.75;;;;;;;3.14;83.58;98909.97;5032484;28;20201;-67
2021/01/05 04:33:53;;;;;;;12.15;5.50;;;;;;;3.14;83.82;98907.31;5032782;28;20688;-69
2021/01/05 04:36:19;;;;;;;12.95;5.53;;;;;;;3.14;83.98;98909.97;5033003;28;20184;-68
2021/01/05 04:38:45;;;;;;;8.60;5.22;;;;;;;3.09;83.84;98907.50;5032588;28;20324;-68
2021/01/05 04:41:18;;;;;;;9.50;5.65;;;;;;;3.16;83.77;98910.78;5032924;28;20221;-70
2021/01/05 04:43:52;;;;;;;11.95;5.90;;;;;;;2.89;84.56;98910.06;5032344;28;20319;-69
2021/01/05 04:46:47;;;;;;;11.60;6.00;;;;;;;2.87;85.16;98906.59;5032627;28;20562;-67
2021/01/05 04:49:46;;;;;;;10.20;5.47;;;;;;;2.90;85.45;98911.81;5029741;28;20286;-68
2021/01/05 04:52:17;;;;;;;7.47;4.47;;;;;;;2.83;85.27;98915.63;5015072;28;20206;-67
2021/01/05 04:54:47;;;;;;;11.60;5.90;;;;;;;2.89;85.26;98918.94;5032417;28;20225;-68
2021/01/05 04:57:23;;;;;;;7.03;4.55;;;;;;;2.98;84.77;98916.81;5032176;28;20209;-67
2021/01/05 04:59:53;;;;;;;6.72;4.25;;;;;;;2.83;85.27;98920.94;5032435;28;20212;-67
2021/01/05 05:02:32;;;;;;;8.65;5.40;;;;;;;2.82;85.38;98920.06;5032412;28;20206;-68
2021/01/05 05:05:03;;;;;;;10.48;5.22;;;;;;;2.83;85.82;98920.94;5032321;28;20711;-67
2021/01/05 05:07:47;;;;;;;10.40;6.03;;;;;;;2.85;85.51;98922.63;5032025;28;20270;-67
2021/01/05 05:10:18;;;;;;;8.45;5.22;;;;;;;2.76;85.93;98922.06;5032435;28;20268;-67
2021/01/05 05:12:55;;;;;;;7.15;4.43;;;;;;;2.83;85.83;98928.94;5031656;28;20186;-68
2021/01/05 05:15:46;;;;;;;12.10;5.38;;;;;;;2.92;85.40;98937.41;5031769;28;20215;-68
2021/01/05 05:18:31;;;;;;;9.57;5.57;;;;;;;2.90;85.40;98928.63;5031698;28;20237;-69
2021/01/05 05:21:17;;;;;;;10.25;5.45;;;;;;;2.99;85.45;98924.75;5031768;28;20684;-68
2021/01/05 05:23:57;;;;;;;10.05;5.72;;;;;;;2.96;85.42;98927.50;5032013;28;20676;-68
2021/01/05 05:26:29;;;;;;;11.73;6.57;;;;;;;2.98;85.69;98933.63;5031623;28;20219;-68
2021/01/05 05:29:02;;;;;;;8.35;5.25;;;;;;;3.04;85.58;98929.91;5032052;28;20549;-67
2021/01/05 05:31:31;;;;;;;11.07;6.32;;;;;;;3.05;85.14;98934.28;5032001;28;20643;-67
2021/01/05 05:34:01;;;;;;;6.47;3.97;;;;;;;3.02;85.16;98926.44;5031540;28;20280;-67
2021/01/05 05:37:12;;;;;;;7.82;5.20;;;;;;;3.11;84.68;98926.94;5031992;28;20599;-67
2021/01/05 05:40:05;;;;;;;7.75;4.95;;;;;;;3.16;84.64;98929.41;4990223;28;20601;-69
2021/01/05 05:42:49;;;;;;;4.97;4.50;;;;;;;3.03;84.89;98942.34;4990243;28;20214;-67
2021/01/05 05:45:24;;;;;;;11.32;5.85;;;;;;;3.03;85.69;98938.78;5024506;28;20225;-68
2021/01/05 05:47:57;;;;;;;7.85;5.50;;;;;;;3.16;84.36;98944.50;5031840;28;20182;-67
2021/01/05 05:50:32;;;;;;;6.57;5.13;;;;;;;3.10;84.58;98946.50;5031170;28;20186;-68
2021/01/05 05:53:05;;;;;;;6.38;4.38;;;;;;;3.09;84.59;98944.75;5031907;28;20959;-68
2021/01/05 05:55:39;;;;;;;9.35;5.35;;;;;;;2.99;84.73;98948.69;5031209;28;20236;-68
2021/01/05 05:58:06;;;;;;;8.02;5.35;;;;;;;2.97;85.05;98955.84;5031227;28;20633;-67
2021/01/05 06:00:37;;;;;;;6.55;5.60;;;;;;;3.12;84.91;98952.63;5034026;28;20570;-69
2021/01/05 06:03:06;;;;;;;7.75;4.32;;;;;;;3.11;84.23;98947.34;5035554;28;20186;-68
2021/01/05 06:05:34;;;;;;;11.00;5.80;;;;;;;2.99;84.72;98954.00;5035660;28;20215;-67
2021/01/05 06:08:01;;;;;;;9.60;5.47;;;;;;;3.01;85.21;98952.16;5035777;28;20954;-69
2021/01/05 06:10:28;;;;;;;9.00;5.25;;;;;;;2.95;85.31;98957.69;5035662;28;20933;-68
2021/01/05 06:12:55;;;;;;;8.73;5.20;;;;;;;3.03;85.43;98955.63;5037965;28;21010;-69
2021/01/05 06:15:22;;;;;;;7.78;6.28;;;;;;;3.09;84.85;98958.03;5043177;28;20230;-68
2021/01/05 06:17:49;;;;;;;9.98;6.32;;;;;;;2.99;84.88;98954.00;5035421;28;20213;-68
2021/01/05 06:20:16;;;;;;;10.30;5.70;;;;;;;3.05;85.51;98958.22;5035321;28;20229;-68
2021/01/05 06:22:42;;;;;;;11.00;5.38;;;;;;;3.20;84.86;98959.44;5034929;28;20195;-67
2021/01/05 06:25:10;;;;;;;9.82;4.22;;;;;;;3.09;84.71;98954.53;5034823;28;20244;-67
2021/01/05 06:27:36;;;;;;;13.65;6.47;;;;;;;3.17;84.42;98951.59;5035407;28;20972;-68
2021/01/05 06:30:05;;;;;;;7.40;5.47;;;;;;;3.17;84.58;98944.47;5035252;28;20243;-67
2021/01/05 06:32:31;;;;;;;15.57;8.77;;;;;;;3.07;84.79;98954.56;5051498;28;20431;-68
2021/01/05 06:34:58;;;;;;;10.57;6.45;;;;;;;3.07;84.95;98951.91;5055170;28;20208;-69
2021/01/05 06:37:24;;;;;;;7.50;4.53;;;;;;;3.07;85.19;98945.72;5055226;28;20983;-72
2021/01/05 06:39:50;;;;;;;10.40;6.30;;;;;;;3.12;84.40;98939.31;5054879;28;20308;-67
2021/01/05 06:42:17;;;;;;;9.65;6.43;;;;;;;3.26;84.05;98936.13;5054736;28;20558;-67
2021/01/05 06:44:44;;;;;;;11.88;5.07;;;;;;;3.31;83.31;98942.13;5054195;28;20275;-68
2021/01/05 06:47:11;;;;;;;8.05;4.85;;;;;;;3.18;83.68;98947.97;5054870;28;20251;-67
2021/01/05 06:49:37;;;;;;;12.23;6.30;;;;;;;3.18;84.22;98958.63;5054373;28;20209;-67
2021/01/05 06:52:05;;;;;;;10.10;6.38;;;;;;;3.13;84.79;98970.31;5054474;28;20216;-67
2021/01/05 06:54:32;;;;;;;9.38;5.03;;;;;;;3.11;84.88;98958.00;5049401;28;20206;-67
2021/01/05 06:56:59;;;;;;;8.13;4.70;;;;;;;3.12;84.94;98957.06;5051274;28;20188;-67
2021/01/05 06:59:26;;;;;;;10.15;5.75;;;;;;;3.11;85.08;98950.00;5052041;28;20609;-67
2021/01/05 07:01:54;;;;;;;12.35;6.15;;;;;;;3.14;86.32;98949.88;5045210;28;20201;-67
2021/01/05 07:04:21;;;;;;;11.30;5.10;;;;;;;3.29;84.66;98956.41;5033878;28;20215;-67
2021/01/05 07:06:47;;;;;;;7.70;5.50;;;;;;;3.28;83.99;98966.19;5047162;28;20244;-69
2021/01/05 07:09:16;;;;;;;10.75;6.10;;;;;;;3.17;84.21;98968.41;5054279;28;20202;-68
2021/01/05 07:11:42;;;;;;;10.77;6.70;;;;;;;3.05;84.84;98969.75;5053580;28;20227;-68
2021/01/05 07:14:08;;;;;;;8.40;5.50;;;;;;;3.11;84.34;98965.97;5053397;28;20282;-67
2021/01/05 07:16:35;;;;;;;12.02;5.97;;;;;;;3.20;84.33;98954.13;5053833;28;20615;-68
2021/01/05 07:19:01;;;;;;;7.90;5.50;;;;;;;3.24;83.89;98963.72;5040538;28;20221;-68
2021/01/05 07:21:27;;;;;;;11.27;6.32;;;;;;;3.30;84.31;98975.00;5033785;28;20315;-68
2021/01/05 07:23:53;;;;;;;8.95;5.15;;;;;;;3.39;83.92;98972.88;5041047;28;20289;-67
2021/01/05 07:26:20;;;;;;;10.07;6.28;;;;;;;3.33;83.31;98974.00;5053848;28;20675;-67
2021/01/05 07:28:47;;;;;;;9.93;5.75;;;;;;;3.18;84.10;98971.94;5053413;28;20616;-67
2021/01/05 07:31:13;;;;;;;9.60;6.05;;;;;;;3.10;84.13;98977.56;5051394;28;20202;-68
2021/01/05 07:33:39;;;;;;;9.07;5.10;;;;;;;3.02;84.85;98977.81;5052408;28;20632;-68
2021/01/05 07:36:09;;;;;;;11.80;5.90;;;;;;;3.04;84.94;98983.09;5052065;28;20199;-67
2021/01/05 07:38:37;;;;;;;11.38;6.15;;;;;;;3.08;84.47;98969.63;5054088;28;20279;-67
2021/01/05 07:41:03;;;;;;;6.55;4.10;;;;;;;3.11;84.47;98974.81;5051682;28;20207;-65
2021/01/05 07:43:30;;;;;;;7.85;4.45;;;;;;;2.97;84.75;98977.13;5053702;28;20273;-67
2021/01/05 07:45:57;;;;;;;7.78;5.40;;;;;;;3.12;84.94;98973.91;5053288;28;20221;-66
2021/01/05 07:48:23;;;;;;;10.38;5.97;;;;;;;3.11;84.50;98974.81;5053370;28;20738;-70
2021/01/05 07:50:49;;;;;;;9.18;5.35;;;;;;;3.12;84.34;98987.19;5053706;28;20547;-66
2021/01/05 07:53:16;;;;;;;7.63;5.03;;;;;;;3.21;84.48;98986.00;5053546;28;20249;-68
2021/01/05 07:55:42;;;;;;;11.68;6.15;;;;;;;3.28;83.59;98976.84;5052597;28;20273;-67
2021/01/05 07:58:08;;;;;;;12.23;5.90;;;;;;;3.48;83.39;98977.84;5053091;28;20269;-66
2021/01/05 08:00:35;;;;;;;13.38;6.65;;;;;;;3.41;83.01;98985.19;5053374;28;20537;-67
2021/01/05 08:03:02;;;;;;;9.60;6.10;;;;;;;3.33;83.32;98982.84;5052749;28;20655;-65
2021/01/05 08:05:29;;;;;;;9.18;5.32;;;;;;;3.49;83.52;98976.94;5053175;28;20259;-67
2021/01/05 08:07:57;;;;;;;10.20;6.30;;;;;;;3.45;83.09;98989.50;5053527;28;20216;-67
2021/01/05 08:10:26;;;;;;;9.75;6.03;;;;;;;3.36;83.13;98988.97;5052783;28;20202;-68
2021/01/05 08:12:52;;;;;;;8.80;5.05;;;;;;;3.30;83.80;98982.09;5050860;28;20284;-67
2021/01/05 08:15:21;;;;;;;9.38;4.90;;;;;;;3.50;83.27;98981.31;5053088;28;20243;-66
2021/01/05 08:17:48;;;;;;;10.85;5.40;;;;;;;3.36;83.38;98984.53;5043922;28;20225;-67
2021/01/05 08:20:17;;;;;;;9.27;5.93;;;;;;;3.31;83.86;98979.38;5049030;28;20586;-66
2021/01/05 08:22:43;;;;;;;10.48;6.30;;;;;;;3.26;84.47;98981.34;5048848;28;20202;-67
2021/01/05 08:25:11;;;;;;;12.07;6.90;;;;;;;3.31;85.32;98982.03;5032800;28;20218;-67
2021/01/05 08:27:37;;;;;;;11.35;7.13;;;;;;;3.20;85.02;98978.06;5032860;28;20209;-68
2021/01/05 08:30:05;;;;;;;9.25;5.90;;;;;;;3.17;85.92;98981.72;5037885;28;20224;-66
2021/01/05 08:32:32;;;;;;;7.90;5.80;;;;;;;3.33;85.55;98977.53;5052626;28;20976;-67
2021/01/05 08:35:00;;;;;;;7.40;5.95;;;;;;;3.22;86.68;98982.41;5050492;28;20204;-66
2021/01/05 08:37:26;;;;;;;13.90;6.93;;;;;;;3.24;86.41;98983.22;5051307;28;20203;-68
2021/01/05 08:39:52;;;;;;;11.23;5.40;;;;;;;3.44;85.62;98990.44;5032477;28;20213;-67
2021/01/05 08:42:18;;;;;;;13.48;6.93;;;;;;;3.35;85.91;98985.47;5032299;28;20202;-68
2021/01/05 08:44:45;;;;;;;11.00;5.40;;;;;;;3.38;85.50;98987.13;5032587;28;20209;-67
2021/01/05 08:47:11;;;;;;;9.45;5.60;;;;;;;3.47;85.30;98990.31;5045546;28;20201;-67
2021/01/05 08:49:38;;;;;;;10.55;5.55;;;;;;;3.44;85.58;98985.09;5051885;28;20199;-67
2021/01/05 08:52:05;;;;;;;10.38;5.85;;;;;;;3.71;89.11;98985.81;5052035;28;20188;-68
2021/01/05 08:54:31;;;;;;;12.63;6.72;;;;;;;3.78;87.48;98990.88;5051901;28;20212;-67
2021/01/05 08:56:59;;;;;;;10.00;5.82;;;;;;;3.69;87.37;98986.81;5052215;28;20232;-67
2021/01/05 08:59:26;;;;;;;12.95;5.82;;;;;;;3.75;88.30;98992.75;5051492;28;20197;-67
2021/01/05 09:01:53;;;;;;;11.98;6.25;;;;;;;3.79;87.82;98985.50;5051899;28;20216;-67
2021/01/05 09:04:19;;;;;;;10.20;6.20;;;;;;;3.82;87.71;98984.50;5048803;28;20189;-68
2021/01/05 09:06:50;;;;;;;10.57;6.28;;;;;;;3.92;84.89;98989.41;5051735;28;20230;-68
2021/01/05 09:09:17;;;;;;;9.10;5.68;;;;;;;3.95;85.33;98991.94;5051165;28;20614;-68
2021/01/05 09:11:44;;;;;;;9.48;5.65;;;;;;;3.88;84.55;98979.78;5051896;28;20193;-68
2021/01/05 09:14:12;;;;;;;12.80;5.68;;;;;;;3.89;87.15;98989.53;5051776;28;20553;-68
2021/01/05 09:16:38;;;;;;;14.93;6.75;;;;;;;3.90;86.58;98996.59;5051218;28;20229;-69
2021/01/05 09:19:05;;;;;;;12.23;6.30;;;;;;;3.68;84.47;98982.41;5051504;28;20200;-68
2021/01/05 09:21:31;;;;;;;9.00;5.18;;;;;;;3.51;84.34;98977.75;5051452;28;20553;-68
2021/01/05 09:23:59;;;;;;;11.25;5.72;;;;;;;3.49;85.04;98985.78;5048822;28;20206;-69
2021/01/05 09:26:28;;;;;;;10.07;6.00;;;;;;;3.33;85.38;98988.19;5051327;28;20232;-68
2021/01/05 09:28:55;;;;;;;13.70;5.57;;;;;;;3.44;85.74;98990.44;5051604;28;20206;-68
2021/01/05 09:31:22;;;;;;;10.10;5.43;;;;;;;3.49;85.44;98993.78;5050841;28;20301;-69
2021/01/05 09:33:49;;;;;;;10.77;5.70;;;;;;;3.60;85.19;98987.19;5050002;28;20208;-67
2021/01/05 09:36:16;;;;;;;10.55;5.50;;;;;;;3.55;85.54;98988.22;5031096;28;20235;-67
2021/01/05 09:38:44;;;;;;;13.40;6.38;;;;;;;3.53;85.88;98984.75;5031951;28;20210;-67
2021/01/05 09:41:21;;;;;;;13.15;5.95;;;;;;;3.45;85.08;98986.81;5049691;28;20207;-68
2021/01/05 09:43:49;;;;;;;7.80;4.78;;;;;;;3.49;85.25;98996.44;5047045;28;20204;-68
2021/01/05 09:46:16;;;;;;;6.53;5.47;;;;;;;3.72;84.11;99000.84;5031236;28;20267;-67
2021/01/05 09:48:43;;;;;;;12.43;6.30;;;;;;;3.59;84.04;98985.41;5031664;28;20233;-67
2021/01/05 09:51:10;;;;;;;9.77;5.43;;;;;;;3.70;83.72;98999.19;5050079;28;20187;-67
2021/01/05 09:53:38;;;;;;;9.00;4.35;;;;;;;3.67;83.14;98988.66;5051204;28;20238;-66
2021/01/05 09:56:05;;;;;;;6.90;5.93;;;;;;;3.78;82.51;98997.09;5051073;28;20243;-66
2021/01/05 09:58:31;;;;;;;10.55;5.68;;;;;;;3.68;82.96;98993.03;5034688;28;20206;-68
2021/01/05 10:00:59;;;;;;;7.60;5.18;;;;;;;3.72;82.44;98992.84;5032184;28;20195;-66
2021/01/05 10:03:25;;;;;;;10.75;5.97;;;;;;;3.80;82.97;98999.66;5043935;28;20642;-66
2021/01/05 10:05:51;;;;;;;12.68;5.72;;;;;;;3.87;82.35;98993.19;5036214;28;20230;-67
2021/01/05 10:08:17;;;;;;;11.88;6.13;;;;;;;3.83;81.42;98997.75;5031661;28;20197;-66
2021/01/05 10:10:44;;;;;;;8.70;4.75;;;;;;;3.81;81.68;98990.75;5031206;28;20290;-66
2021/01/05 10:13:10;;;;;;;8.82;4.95;;;;;;;4.08;85.41;98994.09;5031650;28;20533;-67
2021/01/05 10:15:36;;;;;;;9.82;6.07;;;;;;;3.95;80.89;98983.94;5032150;28;20205;-66
2021/01/05 10:18:05;;;;;;;13.35;5.43;;;;;;;3.90;81.09;98991.25;5030964;28;20198;-66
2021/01/05 10:20:32;;;;;;;10.60;5.22;;;;;;;3.79;81.29;98985.50;5033405;28;20226;-66
2021/01/05 10:22:58;;;;;;;12.77;6.35;;;;;;;3.93;81.27;98985.81;5039020;28;20287;-67
2021/01/05 10:25:25;;;;;;;8.85;5.35;;;;;;;3.82;80.66;98980.06;5050714;28;20309;-68
2021/01/05 10:27:51;;;;;;;19.67;6.28;;;;;;;3.95;80.92;98989.25;5048394;28;20620;-66
2021/01/05 10:30:20;;;;;;;11.75;7.10;;;;;;;4.05;79.95;98988.88;5031214;28;20224;-67
2021/01/05 10:32:47;;;;;;;16.80;6.05;;;;;;;4.08;80.23;98989.63;5031125;28;20288;-67
2021/01/05 10:35:16;;;;;;;7.55;4.78;;;;;;;4.04;80.03;98987.16;5044086;28;20201;-68
2021/01/05 10:37:44;;;;;;;9.10;5.40;;;;;;;4.02;80.61;98983.69;5050776;28;20239;-68
2021/01/05 10:40:14;;;;;;;9.98;5.10;;;;;;;4.12;79.44;98985.06;5046660;28;20213;-67
2021/01/05 10:42:42;;;;;;;10.25;5.65;;;;;;;4.09;79.43;98974.50;5031223;28;20294;-66
2021/01/05 10:45:10;;;;;;;7.75;4.43;;;;;;;4.14;79.80;98983.19;5031905;28;20193;-67
2021/01/05 10:47:38;;;;;;;9.93;6.03;;;;;;;4.30;78.73;98980.75;5050054;28;20278;-68
2021/01/05 10:50:07;;;;;;;11.00;5.53;;;;;;;3.94;79.52;98986.69;5045651;28;20195;-67
2021/01/05 10:52:37;;;;;;;8.95;5.15;;;;;;;4.07;79.81;98987.03;5048841;28;20206;-68
2021/01/05 10:55:05;;;;;;;10.05;5.40;;;;;;;3.97;80.00;98984.75;5034058;28;20200;-69
2021/01/05 10:57:31;;;;;;;7.95;5.43;;;;;;;4.09;80.01;98985.16;5034494;28;20211;-68
2021/01/05 10:59:58;;;;;;;9.93;5.60;;;;;;;4.30;79.30;98984.28;5034803;28;20214;-68
2021/01/05 11:02:24;;;;;;;10.25;5.70;;;;;;;4.49;78.31;98980.81;5034187;28;20213;-69
2021/01/05 11:04:50;;;;;;;9.82;5.88;;;;;;;4.45;77.77;98988.06;5034460;28;20301;-68
2021/01/05 11:07:17;;;;;;;9.20;5.93;;;;;;;4.36;78.36;98977.81;5034037;28;20228;-69
2021/01/05 11:09:45;;;;;;;6.90;4.60;;;;;;;4.10;78.58;98973.59;5040569;28;20622;-68
2021/01/05 11:12:13;;;;;;;12.07;6.10;;;;;;;4.18;78.56;98972.34;5037797;28;20212;-68
2021/01/05 11:14:41;;;;;;;11.27;6.15;;;;;;;4.34;78.84;98975.22;5036800;28;20193;-66
2021/01/05 11:17:09;;;;;;;9.18;5.10;;;;;;;4.32;78.14;98978.88;5034703;28;20650;-67
2021/01/05 11:19:36;;;;;;;8.55;5.95;;;;;;;4.32;77.79;98971.75;5033511;28;20214;-67
2021/01/05 11:22:08;;;;;;;8.70;5.53;;;;;;;4.46;78.23;98973.84;5033621;28;20285;-68
2021/01/05 11:24:36;;;;;;;11.52;4.88;;;;;;;4.37;77.31;98979.56;5033974;28;20208;-67
2021/01/05 11:27:05;;;;;;;11.68;5.45;;;;;;;4.24;78.48;98973.00;5033734;28;20752;-66
2021/01/05 11:29:33;;;;;;;9.48;6.40;;;;;;;4.21;78.48;98968.69;5033867;28;20254;-67
2021/01/05 11:32:01;;;;;;;7.40;5.22;;;;;;;4.25;78.42;98970.28;5033743;28;20239;-67
2021/01/05 11:34:28;;;;;;;11.23;5.35;;;;;;;4.35;78.55;98968.09;5033353;28;20215;-67
2021/01/05 11:37:00;;;;;;;9.30;5.93;;;;;;;4.26;78.53;98961.34;5033796;28;20655;-67
2021/01/05 11:39:26;;;;;;;6.75;4.18;;;;;;;4.46;78.28;98963.16;5033081;28;20208;-67
2021/01/05 11:41:56;;;;;;;9.65;5.72;;;;;;;4.44;77.93;98964.16;5033313;28;20194;-67
2021/01/05 11:44:24;;;;;;;10.65;5.72;;;;;;;4.35;77.88;98962.75;5033016;28;20274;-67
2021/01/05 11:46:50;;;;;;;10.68;6.40;;;;;;;4.18;78.81;98958.13;5033290;28;20244;-66
2021/01/05 11:49:17;;;;;;;13.27;5.53;;;;;;;4.37;78.63;98958.25;5033297;28;20204;-68
2021/01/05 11:51:43;;;;;;;9.43;4.97;;;;;;;4.31;78.85;98962.00;5033145;28;20244;-67
2021/01/05 11:54:10;;;;;;;9.05;4.88;;;;;;;4.18;79.34;98968.78;5033531;28;20239;-66